sensor_id;sensor_type;location;lat;lon;timestamp;pressure;altitude;pressure_sealevel;temperature;humidity
77482;BME280;66582;43.004;-75.010;2023-06-22T00:00:00;100811.11;;;21.84;45.59
77482;BME280;66582;43.004;-75.010;2023-06-22T00:02:26;100806.53;;;22.06;47.53
77482;BME280;66582;43.004;-75.010;2023-06-22T00:04:51;100807.47;;;21.97;47.64
77482;BME280;66582;43.004;-75.010;2023-06-22T00:07:15;100803.79;;;21.63;48.25
77482;BME280;66582;43.004;-75.010;2023-06-22T00:09:41;100804.40;;;21.03;50.53
77482;BME280;66582;43.004;-75.010;2023-06-22T00:12:07;100795.75;;;24.01;43.78
77482;BME280;66582;43.004;-75.010;2023-06-22T00:14:31;100799.93;;;22.90;45.19
77482;BME280;66582;43.004;-75.010;2023-06-22T00:16:56;100795.70;;;25.10;41.08
77482;BME280;66582;43.004;-75.010;2023-06-22T00:19:22;100810.93;;;20.94;48.38
77482;BME280;66582;43.004;-75.010;2023-06-22T00:21:47;100809.75;;;22.73;46.96
77482;BME280;66582;43.004;-75.010;2023-06-22T00:24:12;100803.17;;;24.68;42.30
77482;BME280;66582;43.004;-75.010;2023-06-22T00:26:37;100804.39;;;25.41;39.51
77482;BME280;66582;43.004;-75.010;2023-06-22T00:29:03;100807.23;;;26.52;37.46
77482;BME280;66582;43.004;-75.010;2023-06-22T00:31:28;100813.02;;;26.28;37.11
77482;BME280;66582;43.004;-75.010;2023-06-22T00:33:54;100813.26;;;24.34;40.54
77482;BME280;66582;43.004;-75.010;2023-06-22T00:36:20;100817.21;;;23.66;42.19
77482;BME280;66582;43.004;-75.010;2023-06-22T00:38:45;100825.40;;;21.58;47.35
77482;BME280;66582;43.004;-75.010;2023-06-22T00:41:09;100827.61;;;22.16;46.45
77482;BME280;66582;43.004;-75.010;2023-06-22T00:43:34;100834.08;;;20.85;49.43
77482;BME280;66582;43.004;-75.010;2023-06-22T00:46:00;100834.62;;;22.71;45.73
77482;BME280;66582;43.004;-75.010;2023-06-22T00:48:24;100840.30;;;19.67;57.36
77482;BME280;66582;43.004;-75.010;2023-06-22T00:50:50;100839.91;;;22.73;52.55
77482;BME280;66582;43.004;-75.010;2023-06-22T00:53:15;100840.09;;;23.39;48.10
77482;BME280;66582;43.004;-75.010;2023-06-22T00:55:43;100846.30;;;21.62;51.39
77482;BME280;66582;43.004;-75.010;2023-06-22T00:58:07;100852.71;;;20.40;53.56
77482;BME280;66582;43.004;-75.010;2023-06-22T01:00:33;100856.13;;;21.48;52.63
77482;BME280;66582;43.004;-75.010;2023-06-22T01:02:56;100863.10;;;19.20;60.42
77482;BME280;66582;43.004;-75.010;2023-06-22T01:05:22;100876.82;;;18.28;69.49
77482;BME280;66582;43.004;-75.010;2023-06-22T01:07:56;100878.98;;;17.62;72.62
77482;BME280;66582;43.004;-75.010;2023-06-22T01:10:16;100878.78;;;17.45;77.28
77482;BME280;66582;43.004;-75.010;2023-06-22T01:12:44;100886.04;;;17.55;76.30
77482;BME280;66582;43.004;-75.010;2023-06-22T01:15:08;100887.64;;;17.02;79.29
77482;BME280;66582;43.004;-75.010;2023-06-22T01:17:28;100894.43;;;17.09;79.58
77482;BME280;66582;43.004;-75.010;2023-06-22T01:19:55;100897.11;;;17.16;79.46
77482;BME280;66582;43.004;-75.010;2023-06-22T01:22:18;100900.57;;;17.91;72.51
77482;BME280;66582;43.004;-75.010;2023-06-22T01:24:54;100897.95;;;18.64;71.32
77482;BME280;66582;43.004;-75.010;2023-06-22T01:27:17;100900.71;;;17.64;77.38
77482;BME280;66582;43.004;-75.010;2023-06-22T01:29:35;100906.56;;;17.18;79.44
77482;BME280;66582;43.004;-75.010;2023-06-22T01:31:59;100907.82;;;17.59;76.54
77482;BME280;66582;43.004;-75.010;2023-06-22T01:34:24;100907.55;;;18.03;76.62
77482;BME280;66582;43.004;-75.010;2023-06-22T01:36:50;100910.00;;;17.56;73.27
77482;BME280;66582;43.004;-75.010;2023-06-22T01:39:15;100912.56;;;16.91;82.94
77482;BME280;66582;43.004;-75.010;2023-06-22T01:41:40;100914.05;;;17.24;83.45
77482;BME280;66582;43.004;-75.010;2023-06-22T01:44:06;100915.26;;;17.12;82.54
77482;BME280;66582;43.004;-75.010;2023-06-22T01:46:32;100920.66;;;16.09;87.52
77482;BME280;66582;43.004;-75.010;2023-06-22T01:48:56;100921.10;;;16.78;86.03
77482;BME280;66582;43.004;-75.010;2023-06-22T01:51:21;100919.02;;;17.19;81.00
77482;BME280;66582;43.004;-75.010;2023-06-22T01:53:45;100921.43;;;17.84;77.36
77482;BME280;66582;43.004;-75.010;2023-06-22T01:56:11;100918.69;;;19.51;67.27
77482;BME280;66582;43.004;-75.010;2023-06-22T01:58:41;100917.02;;;22.18;57.94
77482;BME280;66582;43.004;-75.010;2023-06-22T02:01:09;100910.97;;;23.71;52.48
77482;BME280;66582;43.004;-75.010;2023-06-22T02:03:34;100909.26;;;24.01;50.90
77482;BME280;66582;43.004;-75.010;2023-06-22T02:05:58;100912.04;;;21.43;54.97
77482;BME280;66582;43.004;-75.010;2023-06-22T02:08:22;100910.46;;;22.12;55.74
77482;BME280;66582;43.004;-75.010;2023-06-22T02:10:44;100919.63;;;19.02;62.13
77482;BME280;66582;43.004;-75.010;2023-06-22T02:13:10;100922.34;;;18.18;68.64
77482;BME280;66582;43.004;-75.010;2023-06-22T02:15:33;100918.08;;;21.37;58.42
77482;BME280;66582;43.004;-75.010;2023-06-22T02:17:59;100921.03;;;18.87;66.20
77482;BME280;66582;43.004;-75.010;2023-06-22T02:20:25;100922.39;;;17.81;70.05
77482;BME280;66582;43.004;-75.010;2023-06-22T02:22:48;100923.84;;;18.13;71.61
77482;BME280;66582;43.004;-75.010;2023-06-22T02:25:16;100915.92;;;22.14;58.10
77482;BME280;66582;43.004;-75.010;2023-06-22T02:27:39;100920.85;;;20.35;60.00
77482;BME280;66582;43.004;-75.010;2023-06-22T02:30:05;100917.98;;;20.82;57.73
77482;BME280;66582;43.004;-75.010;2023-06-22T02:32:31;100921.56;;;21.22;57.41
77482;BME280;66582;43.004;-75.010;2023-06-22T02:34:54;100925.39;;;19.48;60.81
77482;BME280;66582;43.004;-75.010;2023-06-22T02:37:21;100920.11;;;20.84;57.99
77482;BME280;66582;43.004;-75.010;2023-06-22T02:39:45;100934.87;;;16.09;77.00
77482;BME280;66582;43.004;-75.010;2023-06-22T02:42:11;100946.32;;;14.54;92.08
77482;BME280;66582;43.004;-75.010;2023-06-22T02:44:35;100951.03;;;14.32;98.59
77482;BME280;66582;43.004;-75.010;2023-06-22T02:47:01;100946.91;;;14.21;99.71
77482;BME280;66582;43.004;-75.010;2023-06-22T02:49:26;100948.42;;;15.31;94.75
77482;BME280;66582;43.004;-75.010;2023-06-22T02:51:51;100939.02;;;17.24;85.76
77482;BME280;66582;43.004;-75.010;2023-06-22T02:54:17;100945.06;;;15.90;88.46
77482;BME280;66582;43.004;-75.010;2023-06-22T02:56:42;100940.30;;;18.10;77.42
77482;BME280;66582;43.004;-75.010;2023-06-22T02:59:06;100938.71;;;19.41;71.32
77482;BME280;66582;43.004;-75.010;2023-06-22T03:01:32;100938.48;;;19.63;66.76
77482;BME280;66582;43.004;-75.010;2023-06-22T03:03:57;100948.94;;;15.74;88.26
77482;BME280;66582;43.004;-75.010;2023-06-22T03:06:22;100958.61;;;14.55;97.88
77482;BME280;66582;43.004;-75.010;2023-06-22T03:08:47;100954.19;;;14.65;99.76
77482;BME280;66582;43.004;-75.010;2023-06-22T03:11:12;100950.09;;;14.28;99.60
77482;BME280;66582;43.004;-75.010;2023-06-22T03:13:38;100950.77;;;14.32;100.00
77482;BME280;66582;43.004;-75.010;2023-06-22T03:16:03;100954.26;;;13.46;100.00
77482;BME280;66582;43.004;-75.010;2023-06-22T03:18:28;100957.56;;;13.85;100.00
77482;BME280;66582;43.004;-75.010;2023-06-22T03:20:53;100957.37;;;13.79;100.00
77482;BME280;66582;43.004;-75.010;2023-06-22T03:23:19;100954.00;;;14.25;100.00
77482;BME280;66582;43.004;-75.010;2023-06-22T03:25:44;100940.60;;;17.32;86.29
77482;BME280;66582;43.004;-75.010;2023-06-22T03:28:10;100937.10;;;17.94;76.00
77482;BME280;66582;43.004;-75.010;2023-06-22T03:30:34;100946.30;;;15.32;89.30
77482;BME280;66582;43.004;-75.010;2023-06-22T03:33:00;100948.56;;;15.35;92.44
77482;BME280;66582;43.004;-75.010;2023-06-22T03:35:24;100946.84;;;17.82;78.44
77482;BME280;66582;43.004;-75.010;2023-06-22T03:37:50;100946.91;;;18.54;69.97
77482;BME280;66582;43.004;-75.010;2023-06-22T03:40:15;100941.64;;;19.11;68.15
77482;BME280;66582;43.004;-75.010;2023-06-22T03:42:40;100936.67;;;20.13;64.68
77482;BME280;66582;43.004;-75.010;2023-06-22T03:45:07;100947.73;;;18.23;66.08
77482;BME280;66582;43.004;-75.010;2023-06-22T03:47:30;100942.32;;;19.67;65.88
77482;BME280;66582;43.004;-75.010;2023-06-22T03:49:55;100946.63;;;19.21;64.71
77482;BME280;66582;43.004;-75.010;2023-06-22T03:52:22;100946.10;;;19.17;63.99
77482;BME280;66582;43.004;-75.010;2023-06-22T03:54:46;100948.22;;;17.42;68.71
77482;BME280;66582;43.004;-75.010;2023-06-22T03:57:11;100945.10;;;17.03;73.66
77482;BME280;66582;43.004;-75.010;2023-06-22T03:59:37;100945.05;;;19.17;64.40
77482;BME280;66582;43.004;-75.010;2023-06-22T04:02:02;100944.80;;;19.06;66.89
77482;BME280;66582;43.004;-75.010;2023-06-22T04:04:28;100958.65;;;14.14;90.10
77482;BME280;66582;43.004;-75.010;2023-06-22T04:06:52;100954.84;;;14.85;93.09
77482;BME280;66582;43.004;-75.010;2023-06-22T04:09:18;100947.21;;;18.67;71.98
77482;BME280;66582;43.004;-75.010;2023-06-22T04:11:43;100963.45;;;14.14;88.60
77482;BME280;66582;43.004;-75.010;2023-06-22T04:14:10;100954.18;;;16.30;85.26
77482;BME280;66582;43.004;-75.010;2023-06-22T04:16:34;100961.56;;;14.16;92.07
77482;BME280;66582;43.004;-75.010;2023-06-22T04:18:58;100969.50;;;12.62;100.00
77482;BME280;66582;43.004;-75.010;2023-06-22T04:21:23;100965.37;;;14.18;100.00
77482;BME280;66582;43.004;-75.010;2023-06-22T04:23:49;100958.76;;;17.44;86.99
77482;BME280;66582;43.004;-75.010;2023-06-22T04:26:14;100960.10;;;16.94;84.81
77482;BME280;66582;43.004;-75.010;2023-06-22T04:28:40;100961.59;;;16.40;82.67
77482;BME280;66582;43.004;-75.010;2023-06-22T04:31:06;100960.61;;;15.58;91.26
77482;BME280;66582;43.004;-75.010;2023-06-22T04:33:30;100956.74;;;17.28;80.87
77482;BME280;66582;43.004;-75.010;2023-06-22T04:35:55;100970.58;;;14.96;94.26
77482;BME280;66582;43.004;-75.010;2023-06-22T04:38:21;100974.30;;;14.28;98.57
77482;BME280;66582;43.004;-75.010;2023-06-22T04:40:46;100977.32;;;11.83;100.00
77482;BME280;66582;43.004;-75.010;2023-06-22T04:43:12;100978.11;;;11.99;100.00
77482;BME280;66582;43.004;-75.010;2023-06-22T04:45:37;100976.74;;;11.22;100.00
77482;BME280;66582;43.004;-75.010;2023-06-22T04:48:01;100973.40;;;12.04;100.00
77482;BME280;66582;43.004;-75.010;2023-06-22T04:50:27;100973.46;;;12.74;100.00
77482;BME280;66582;43.004;-75.010;2023-06-22T04:52:52;100970.96;;;13.22;100.00
77482;BME280;66582;43.004;-75.010;2023-06-22T04:55:19;100969.91;;;14.86;100.00
77482;BME280;66582;43.004;-75.010;2023-06-22T04:57:43;100980.08;;;12.38;100.00
77482;BME280;66582;43.004;-75.010;2023-06-22T05:00:10;100974.07;;;16.03;97.56
77482;BME280;66582;43.004;-75.010;2023-06-22T05:02:32;100974.62;;;15.92;94.66
77482;BME280;66582;43.004;-75.010;2023-06-22T05:04:58;100966.56;;;16.48;88.87
77482;BME280;66582;43.004;-75.010;2023-06-22T05:07:23;100965.20;;;17.78;81.80
77482;BME280;66582;43.004;-75.010;2023-06-22T05:09:48;100968.33;;;17.45;82.40
77482;BME280;66582;43.004;-75.010;2023-06-22T05:12:13;100970.01;;;16.88;84.97
77482;BME280;66582;43.004;-75.010;2023-06-22T05:14:38;100974.93;;;13.28;100.00
77482;BME280;66582;43.004;-75.010;2023-06-22T05:17:04;100971.34;;;13.22;100.00
77482;BME280;66582;43.004;-75.010;2023-06-22T05:19:29;100969.19;;;14.78;99.58
77482;BME280;66582;43.004;-75.010;2023-06-22T05:21:54;100965.55;;;16.27;88.10
77482;BME280;66582;43.004;-75.010;2023-06-22T05:24:20;100970.49;;;14.96;88.92
77482;BME280;66582;43.004;-75.010;2023-06-22T05:26:44;100976.28;;;12.68;100.00
77482;BME280;66582;43.004;-75.010;2023-06-22T05:29:09;100978.66;;;11.13;100.00
77482;BME280;66582;43.004;-75.010;2023-06-22T05:31:35;100977.31;;;12.07;100.00
77482;BME280;66582;43.004;-75.010;2023-06-22T05:33:59;100967.61;;;16.03;98.92
77482;BME280;66582;43.004;-75.010;2023-06-22T05:36:25;100973.28;;;13.69;100.00
77482;BME280;66582;43.004;-75.010;2023-06-22T05:38:50;100968.31;;;14.39;97.62
77482;BME280;66582;43.004;-75.010;2023-06-22T05:41:15;100966.36;;;11.88;100.00
77482;BME280;66582;43.004;-75.010;2023-06-22T05:43:40;100968.79;;;11.53;100.00
77482;BME280;66582;43.004;-75.010;2023-06-22T05:46:06;100968.77;;;11.42;100.00
77482;BME280;66582;43.004;-75.010;2023-06-22T05:48:30;100969.62;;;11.97;100.00
77482;BME280;66582;43.004;-75.010;2023-06-22T05:50:56;100965.73;;;11.13;100.00
77482;BME280;66582;43.004;-75.010;2023-06-22T05:53:21;100967.47;;;11.00;100.00
77482;BME280;66582;43.004;-75.010;2023-06-22T05:55:46;100953.22;;;13.86;100.00
77482;BME280;66582;43.004;-75.010;2023-06-22T05:58:12;100955.14;;;14.95;100.00
77482;BME280;66582;43.004;-75.010;2023-06-22T06:00:37;100947.07;;;16.92;93.04
77482;BME280;66582;43.004;-75.010;2023-06-22T06:03:02;100954.43;;;14.24;99.35
77482;BME280;66582;43.004;-75.010;2023-06-22T06:05:27;100955.31;;;13.33;100.00
77482;BME280;66582;43.004;-75.010;2023-06-22T06:07:52;100958.63;;;13.55;100.00
77482;BME280;66582;43.004;-75.010;2023-06-22T06:10:17;100962.93;;;12.53;100.00
77482;BME280;66582;43.004;-75.010;2023-06-22T06:12:42;100957.29;;;12.89;100.00
77482;BME280;66582;43.004;-75.010;2023-06-22T06:15:08;100964.09;;;11.48;100.00
77482;BME280;66582;43.004;-75.010;2023-06-22T06:17:33;100962.37;;;10.34;100.00
77482;BME280;66582;43.004;-75.010;2023-06-22T06:19:59;100959.66;;;10.31;100.00
77482;BME280;66582;43.004;-75.010;2023-06-22T06:22:23;100958.69;;;10.35;100.00
77482;BME280;66582;43.004;-75.010;2023-06-22T06:24:48;100961.86;;;10.00;100.00
77482;BME280;66582;43.004;-75.010;2023-06-22T06:27:14;100960.28;;;10.19;100.00
77482;BME280;66582;43.004;-75.010;2023-06-22T06:29:38;100956.89;;;12.00;100.00
77482;BME280;66582;43.004;-75.010;2023-06-22T06:32:04;100959.49;;;11.40;100.00
77482;BME280;66582;43.004;-75.010;2023-06-22T06:34:29;100966.07;;;10.48;100.00
77482;BME280;66582;43.004;-75.010;2023-06-22T06:36:54;100972.83;;;10.22;100.00
77482;BME280;66582;43.004;-75.010;2023-06-22T06:39:20;100977.91;;;10.34;100.00
77482;BME280;66582;43.004;-75.010;2023-06-22T06:41:44;100976.39;;;10.53;100.00
77482;BME280;66582;43.004;-75.010;2023-06-22T06:44:09;100973.42;;;10.04;100.00
77482;BME280;66582;43.004;-75.010;2023-06-22T06:46:34;100973.47;;;10.14;100.00
77482;BME280;66582;43.004;-75.010;2023-06-22T06:49:00;100969.29;;;9.86;100.00
77482;BME280;66582;43.004;-75.010;2023-06-22T06:51:25;100964.85;;;9.72;100.00
77482;BME280;66582;43.004;-75.010;2023-06-22T06:53:50;100961.05;;;10.26;100.00
77482;BME280;66582;43.004;-75.010;2023-06-22T06:56:16;100963.94;;;10.25;100.00
77482;BME280;66582;43.004;-75.010;2023-06-22T06:58:42;100959.54;;;10.82;100.00
77482;BME280;66582;43.004;-75.010;2023-06-22T07:01:06;100965.65;;;10.20;100.00
77482;BME280;66582;43.004;-75.010;2023-06-22T07:03:32;100966.74;;;11.06;100.00
77482;BME280;66582;43.004;-75.010;2023-06-22T07:05:58;100969.39;;;11.52;100.00
77482;BME280;66582;43.004;-75.010;2023-06-22T07:08:21;100967.52;;;11.71;100.00
77482;BME280;66582;43.004;-75.010;2023-06-22T07:10:47;100968.11;;;11.04;100.00
77482;BME280;66582;43.004;-75.010;2023-06-22T07:13:11;100971.20;;;10.77;100.00
77482;BME280;66582;43.004;-75.010;2023-06-22T07:15:37;100965.82;;;11.18;100.00
77482;BME280;66582;43.004;-75.010;2023-06-22T07:18:02;100963.96;;;11.45;100.00
77482;BME280;66582;43.004;-75.010;2023-06-22T07:20:27;100967.70;;;10.84;100.00
77482;BME280;66582;43.004;-75.010;2023-06-22T07:22:52;100969.13;;;10.63;100.00
77482;BME280;66582;43.004;-75.010;2023-06-22T07:25:17;100953.85;;;14.52;100.00
77482;BME280;66582;43.004;-75.010;2023-06-22T07:27:46;100957.70;;;12.31;100.00
77482;BME280;66582;43.004;-75.010;2023-06-22T07:30:08;100962.08;;;12.59;100.00
77482;BME280;66582;43.004;-75.010;2023-06-22T07:32:33;100954.71;;;14.33;100.00
77482;BME280;66582;43.004;-75.010;2023-06-22T07:34:59;100970.46;;;10.70;100.00
77482;BME280;66582;43.004;-75.010;2023-06-22T07:37:23;100955.49;;;13.27;100.00
77482;BME280;66582;43.004;-75.010;2023-06-22T07:39:48;100950.65;;;13.69;100.00
77482;BME280;66582;43.004;-75.010;2023-06-22T07:42:14;100952.32;;;13.45;100.00
77482;BME280;66582;43.004;-75.010;2023-06-22T07:44:39;100966.18;;;11.68;100.00
77482;BME280;66582;43.004;-75.010;2023-06-22T07:47:04;100962.75;;;13.68;100.00
77482;BME280;66582;43.004;-75.010;2023-06-22T07:49:29;100966.36;;;12.49;100.00
77482;BME280;66582;43.004;-75.010;2023-06-22T07:51:54;100975.11;;;10.39;100.00
77482;BME280;66582;43.004;-75.010;2023-06-22T07:54:19;100973.08;;;9.83;100.00
77482;BME280;66582;43.004;-75.010;2023-06-22T07:56:44;100971.52;;;10.08;100.00
77482;BME280;66582;43.004;-75.010;2023-06-22T07:59:09;100969.99;;;10.34;100.00
77482;BME280;66582;43.004;-75.010;2023-06-22T08:01:35;100961.31;;;11.57;100.00
77482;BME280;66582;43.004;-75.010;2023-06-22T08:04:00;100953.75;;;13.08;100.00
77482;BME280;66582;43.004;-75.010;2023-06-22T08:06:25;100955.99;;;11.21;100.00
77482;BME280;66582;43.004;-75.010;2023-06-22T08:08:50;100950.00;;;12.05;100.00
77482;BME280;66582;43.004;-75.010;2023-06-22T08:11:15;100951.93;;;10.93;100.00
77482;BME280;66582;43.004;-75.010;2023-06-22T08:13:40;100933.75;;;14.28;100.00
77482;BME280;66582;43.004;-75.010;2023-06-22T08:16:06;100937.61;;;12.16;100.00
77482;BME280;66582;43.004;-75.010;2023-06-22T08:18:31;100930.20;;;14.77;100.00
77482;BME280;66582;43.004;-75.010;2023-06-22T08:20:56;100934.60;;;14.61;98.50
77482;BME280;66582;43.004;-75.010;2023-06-22T08:23:21;100948.09;;;10.16;100.00
77482;BME280;66582;43.004;-75.010;2023-06-22T08:25:46;100950.03;;;10.66;100.00
77482;BME280;66582;43.004;-75.010;2023-06-22T08:28:11;100950.29;;;8.85;100.00
77482;BME280;66582;43.004;-75.010;2023-06-22T08:30:38;100951.75;;;9.14;100.00
77482;BME280;66582;43.004;-75.010;2023-06-22T08:33:03;100954.95;;;9.04;100.00
77482;BME280;66582;43.004;-75.010;2023-06-22T08:35:27;100953.53;;;10.43;100.00
77482;BME280;66582;43.004;-75.010;2023-06-22T08:37:53;100939.48;;;12.91;100.00
77482;BME280;66582;43.004;-75.010;2023-06-22T08:40:19;100941.90;;;12.25;100.00
77482;BME280;66582;43.004;-75.010;2023-06-22T08:42:43;100951.09;;;9.55;100.00
77482;BME280;66582;43.004;-75.010;2023-06-22T08:45:10;100944.77;;;10.42;100.00
77482;BME280;66582;43.004;-75.010;2023-06-22T08:47:34;100949.70;;;9.65;100.00
77482;BME280;66582;43.004;-75.010;2023-06-22T08:49:59;100952.75;;;9.46;100.00
77482;BME280;66582;43.004;-75.010;2023-06-22T08:52:24;100949.45;;;11.10;100.00
77482;BME280;66582;43.004;-75.010;2023-06-22T08:54:49;100932.90;;;13.23;100.00
77482;BME280;66582;43.004;-75.010;2023-06-22T08:57:15;100939.48;;;13.09;100.00
77482;BME280;66582;43.004;-75.010;2023-06-22T08:59:39;100940.48;;;13.93;100.00
77482;BME280;66582;43.004;-75.010;2023-06-22T09:02:05;100954.44;;;11.46;100.00
77482;BME280;66582;43.004;-75.010;2023-06-22T09:04:30;100955.30;;;11.28;100.00
77482;BME280;66582;43.004;-75.010;2023-06-22T09:06:56;100961.48;;;9.71;100.00
77482;BME280;66582;43.004;-75.010;2023-06-22T09:09:21;100958.33;;;11.79;100.00
77482;BME280;66582;43.004;-75.010;2023-06-22T09:11:46;100952.91;;;14.46;100.00
77482;BME280;66582;43.004;-75.010;2023-06-22T09:14:10;100951.21;;;14.40;97.88
77482;BME280;66582;43.004;-75.010;2023-06-22T09:16:36;100966.86;;;10.96;100.00
77482;BME280;66582;43.004;-75.010;2023-06-22T09:19:01;100960.98;;;13.13;100.00
77482;BME280;66582;43.004;-75.010;2023-06-22T09:21:26;100976.97;;;9.98;100.00
77482;BME280;66582;43.004;-75.010;2023-06-22T09:23:51;100982.50;;;9.46;100.00
77482;BME280;66582;43.004;-75.010;2023-06-22T09:26:16;100977.32;;;10.01;100.00
77482;BME280;66582;43.004;-75.010;2023-06-22T09:28:42;100985.53;;;9.21;100.00
77482;BME280;66582;43.004;-75.010;2023-06-22T09:31:07;100983.75;;;9.00;100.00
77482;BME280;66582;43.004;-75.010;2023-06-22T09:33:32;100980.64;;;9.68;100.00
77482;BME280;66582;43.004;-75.010;2023-06-22T09:35:57;100979.47;;;11.31;100.00
77482;BME280;66582;43.004;-75.010;2023-06-22T09:38:22;100978.58;;;11.63;100.00
77482;BME280;66582;43.004;-75.010;2023-06-22T09:40:47;100982.84;;;10.95;100.00
77482;BME280;66582;43.004;-75.010;2023-06-22T09:43:12;100990.18;;;9.02;100.00
77482;BME280;66582;43.004;-75.010;2023-06-22T09:45:37;100993.85;;;9.35;100.00
77482;BME280;66582;43.004;-75.010;2023-06-22T09:48:02;100985.30;;;12.53;100.00
77482;BME280;66582;43.004;-75.010;2023-06-22T09:50:27;100994.98;;;10.96;100.00
77482;BME280;66582;43.004;-75.010;2023-06-22T09:52:53;100988.84;;;13.92;100.00
77482;BME280;66582;43.004;-75.010;2023-06-22T09:55:18;100990.40;;;13.39;100.00
77482;BME280;66582;43.004;-75.010;2023-06-22T09:57:43;100987.44;;;13.43;100.00
77482;BME280;66582;43.004;-75.010;2023-06-22T10:00:11;100997.58;;;11.37;100.00
77482;BME280;66582;43.004;-75.010;2023-06-22T10:02:33;101002.03;;;9.84;100.00
77482;BME280;66582;43.004;-75.010;2023-06-22T10:04:58;101005.86;;;9.34;100.00
77482;BME280;66582;43.004;-75.010;2023-06-22T10:07:24;101006.38;;;9.51;100.00
77482;BME280;66582;43.004;-75.010;2023-06-22T10:09:50;101001.08;;;11.49;100.00
77482;BME280;66582;43.004;-75.010;2023-06-22T10:12:15;101002.56;;;11.38;100.00
77482;BME280;66582;43.004;-75.010;2023-06-22T10:14:40;100999.10;;;12.45;100.00
77482;BME280;66582;43.004;-75.010;2023-06-22T10:17:05;101003.20;;;11.46;100.00
77482;BME280;66582;43.004;-75.010;2023-06-22T10:19:29;100998.78;;;12.74;100.00
77482;BME280;66582;43.004;-75.010;2023-06-22T10:21:55;101007.72;;;11.14;100.00
77482;BME280;66582;43.004;-75.010;2023-06-22T10:24:21;101016.40;;;9.81;100.00
77482;BME280;66582;43.004;-75.010;2023-06-22T10:26:45;101019.78;;;8.96;100.00
77482;BME280;66582;43.004;-75.010;2023-06-22T10:29:10;101025.44;;;8.74;100.00
77482;BME280;66582;43.004;-75.010;2023-06-22T10:31:36;101026.87;;;8.91;100.00
77482;BME280;66582;43.004;-75.010;2023-06-22T10:34:00;101025.10;;;9.77;100.00
77482;BME280;66582;43.004;-75.010;2023-06-22T10:36:26;101017.49;;;11.86;100.00
77482;BME280;66582;43.004;-75.010;2023-06-22T10:38:51;101011.79;;;13.73;100.00
77482;BME280;66582;43.004;-75.010;2023-06-22T10:41:16;101019.09;;;11.67;100.00
77482;BME280;66582;43.004;-75.010;2023-06-22T10:43:41;101014.83;;;11.50;100.00
77482;BME280;66582;43.004;-75.010;2023-06-22T10:46:07;101005.12;;;12.65;100.00
77482;BME280;66582;43.004;-75.010;2023-06-22T10:48:31;100995.66;;;13.92;100.00
77482;BME280;66582;43.004;-75.010;2023-06-22T10:50:56;100992.80;;;14.28;98.78
77482;BME280;66582;43.004;-75.010;2023-06-22T10:53:22;100990.27;;;13.58;100.00
77482;BME280;66582;43.004;-75.010;2023-06-22T10:55:47;100989.85;;;13.30;100.00
77482;BME280;66582;43.004;-75.010;2023-06-22T10:58:12;100981.55;;;13.80;100.00
77482;BME280;66582;43.004;-75.010;2023-06-22T11:00:37;100981.62;;;13.06;100.00
77482;BME280;66582;43.004;-75.010;2023-06-22T11:03:02;100982.13;;;13.47;100.00
77482;BME280;66582;43.004;-75.010;2023-06-22T11:05:27;100979.92;;;16.42;95.29
77482;BME280;66582;43.004;-75.010;2023-06-22T11:07:52;100983.44;;;15.91;93.44
77482;BME280;66582;43.004;-75.010;2023-06-22T11:10:19;100982.15;;;16.78;91.27
77482;BME280;66582;43.004;-75.010;2023-06-22T11:12:43;100989.41;;;15.46;94.74
77482;BME280;66582;43.004;-75.010;2023-06-22T11:15:09;100989.76;;;16.70;91.39
77482;BME280;66582;43.004;-75.010;2023-06-22T11:17:34;100988.97;;;17.76;88.15
77482;BME280;66582;43.004;-75.010;2023-06-22T11:19:59;100982.61;;;18.41;83.22
77482;BME280;66582;43.004;-75.010;2023-06-22T11:22:23;100984.30;;;19.04;79.20
77482;BME280;66582;43.004;-75.010;2023-06-22T11:24:48;100991.94;;;14.89;92.20
77482;BME280;66582;43.004;-75.010;2023-06-22T11:27:14;100998.09;;;12.78;100.00
77482;BME280;66582;43.004;-75.010;2023-06-22T11:29:39;100999.82;;;12.67;100.00
77482;BME280;66582;43.004;-75.010;2023-06-22T11:32:05;100992.71;;;15.77;100.00
77482;BME280;66582;43.004;-75.010;2023-06-22T11:34:29;100994.61;;;14.78;100.00
77482;BME280;66582;43.004;-75.010;2023-06-22T11:36:54;100982.26;;;17.27;91.20
77482;BME280;66582;43.004;-75.010;2023-06-22T11:39:21;100984.87;;;19.26;81.87
77482;BME280;66582;43.004;-75.010;2023-06-22T11:41:45;100984.38;;;16.58;86.33
77482;BME280;66582;43.004;-75.010;2023-06-22T11:44:11;100988.92;;;15.10;96.96
77482;BME280;66582;43.004;-75.010;2023-06-22T11:46:37;100986.51;;;14.63;100.00
77482;BME280;66582;43.004;-75.010;2023-06-22T11:49:02;100982.82;;;14.17;100.00
77482;BME280;66582;43.004;-75.010;2023-06-22T11:51:26;100972.56;;;16.76;99.46
77482;BME280;66582;43.004;-75.010;2023-06-22T11:53:52;100967.15;;;18.23;88.14
77482;BME280;66582;43.004;-75.010;2023-06-22T11:56:17;100971.38;;;16.45;96.71
77482;BME280;66582;43.004;-75.010;2023-06-22T11:58:42;100969.92;;;16.43;92.29
77482;BME280;66582;43.004;-75.010;2023-06-22T12:01:08;100965.45;;;17.74;89.10
77482;BME280;66582;43.004;-75.010;2023-06-22T12:03:32;100961.78;;;19.58;79.25
77482;BME280;66582;43.004;-75.010;2023-06-22T12:05:59;100969.18;;;16.71;86.64
77482;BME280;66582;43.004;-75.010;2023-06-22T12:08:23;100962.66;;;18.39;86.84
77482;BME280;66582;43.004;-75.010;2023-06-22T12:10:49;100965.98;;;17.07;85.41
77482;BME280;66582;43.004;-75.010;2023-06-22T12:13:13;100972.68;;;16.38;96.35